KDSV/DSV METAR and TAF weather

Enter ICAO airport designator
Station Type Date Time Source
KDSV METAR 2020/07/09 22:54 UTC NOAA

KDSV 092254Z AUTO 00000KT 10SM FEW085 33/18 A2989 RMK AO2 SLP125 T03330178


Station Type Date Time Source
KDSV Decoded METAR 2020/07/09 22:54 UTC NOAA

DANSVILLE MUNICIPAL AIRPORT, NY, United States (KDSV) 42-34N 077-43W 198M
Jul 09, 2020 - 06:54 PM EDT / 2020.07.09 2254 UTC
Wind: Calm:0
Visibility: 10 mile(s):0
Sky conditions: mostly clear
Temperature: 91.9 F (33.3 C)
Dew Point: 64.0 F (17.8 C)
Relative Humidity: 39%
Pressure (altimeter): 29.89 in. Hg (1012 hPa)
ob: KDSV 092254Z AUTO 00000KT 10SM FEW085 33/18 A2989 RMK AO2 SLP125 T03330178
cycle: 23

Station Type Date Time Source
KDSV TAF UTC NOAA

Error!

Example: see airport list